Willmar, MN (56201)

7:37 PM CST on December 05, 2016 (GMT -0600)
APRSWXNET | | Change Station

Elev 1181 ft 45.15 °N, 95.01 °W | Updated 27 minutes ago

Scattered Clouds
Scattered Clouds
39 °F
Feels Like 32 °F
N
11
Wind Variable Wind from WSW
Gusts 19.0 mph

Today
High -- | Low -- °F
--% Chance of Precip.
Yesterday
High -- | Low -- °F
Precip. -- in
Pressure 29.54 in
Visibility 10.0 miles
Clouds Scattered Clouds 9000 ft
Windchill 32 °F
Dew Point 36 °F
Humidity 88%
Rainfall in
Snow Depth Not available.
7:43 AM 4:38 PM
Waxing Crescent, 36% visible
METAR KBDH 060115Z AUTO 20005KT 10SM SCT090 05/02 A2954 RMK AO2
Pressure 29.54 in
Visibility 10.0 miles
Clouds Scattered Clouds 9000 ft
Windchill 32 °F
Dew Point 36 °F
Humidity 88%
Rainfall in
Snow Depth Not available.
7:43 AM 4:38 PM
Waxing Crescent, 36% visible
METAR KBDH 060115Z AUTO 20005KT 10SM SCT090 05/02 A2954 RMK AO2

10-Day Weather Forecast

Almanac

Astronomy

Dec. 05, 2016 Rise Set
Actual Time
Civil Twilight
Nautical Twilight
Astronomical Twilight
Moon
Length of Visible Light
Length of Day
Tomorrow will be .
, % of the Moon is Illuminated

Today's Extremes

State Highs State Lows

Community

WunderPhotos

Upload Photos

1,955,893 photos uploaded!

WunderBlog® & News

Nearby

Air Quality

  Air Quality AQ Index Pollutant
Not available.

Snow Depth

Station Depth Elevation

Earthquake Activity

City Distance Mag. Time & Date
Minimum magnitude displayed is 2.5.

Coastal Water Temperatures

Place Temperature

Stations

Nearby Weather Stations

Station Location Temp. Windchill Dew Point Humidity Wind Precip. Elev Updated Type
                   

Watches & Warnings

There are currently no watches in effect.